Time;durP1;ratioP1;P1;durP2;ratioP2;P2;SDS_P1;SDS_P2;PMS_P1;PMS_P2;Temp;Humidity;BMP_temperature;BMP_pressure;BME280_temperature;BME280_humidity;BME280_pressure;Samples;Min_cycle;Max_cycle;Signal;HPM_P1;HPM_P2
2022/03/12 00:00:35;;;;;;;14.95;8.73;;;5.20;1.00;;;;;;7369355;19;20078;-61
2022/03/12 00:03:05;;;;;;;13.95;8.68;;;5.30;1.00;;;;;;7366178;19;20006;-60
2022/03/12 00:05:36;;;;;;;14.82;8.23;;;5.20;1.00;;;;;;7365858;19;20018;-61
2022/03/12 00:08:07;;;;;;;19.55;9.30;;;5.10;1.00;;;;;;7370938;19;20114;-61
2022/03/12 00:10:41;;;;;;;12.52;8.13;;;5.10;1.00;;;;;;7391986;19;20078;-60
2022/03/12 00:13:13;;;;;;;16.08;8.85;;;5.10;1.00;;;;;;7365584;19;20014;-61
2022/03/12 00:15:43;;;;;;;16.08;8.50;;;5.10;1.00;;;;;;7365956;19;20010;-61
2022/03/12 00:18:14;;;;;;;15.73;8.63;;;5.00;1.00;;;;;;7369043;19;20010;-61
2022/03/12 00:20:47;;;;;;;17.27;8.13;;;5.00;1.00;;;;;;7368513;19;20014;-61
2022/03/12 00:23:18;;;;;;;13.57;8.13;;;5.00;1.00;;;;;;7364076;19;20411;-61
2022/03/12 00:25:48;;;;;;;15.40;9.20;;;5.00;1.00;;;;;;7363961;19;20085;-61
2022/03/12 00:28:21;;;;;;;20.15;8.77;;;5.00;1.00;;;;;;7392171;19;20078;-60
2022/03/12 00:30:52;;;;;;;15.10;9.00;;;5.00;1.00;;;;;;7368099;19;20028;-61
2022/03/12 00:33:24;;;;;;;16.02;8.70;;;5.00;1.00;;;;;;7362767;19;20039;-61
2022/03/12 00:35:55;;;;;;;14.82;8.88;;;5.00;1.00;;;;;;7366754;19;20015;-61
2022/03/12 00:38:25;;;;;;;16.25;8.10;;;5.00;1.00;;;;;;7370532;19;20039;-61
2022/03/12 00:41:04;;;;;;;12.77;7.88;;;4.90;1.00;;;;;;7367461;19;20018;-60
2022/03/12 00:43:37;;;;;;;16.45;8.55;;;4.90;1.00;;;;;;7385492;19;20018;-61
2022/03/12 00:46:07;;;;;;;13.63;8.10;;;4.80;1.00;;;;;;7366107;19;20013;-60
2022/03/12 00:48:41;;;;;;;15.82;8.68;;;4.90;1.00;;;;;;7369115;19;20609;-61
2022/03/12 00:51:12;;;;;;;14.02;7.97;;;4.90;1.00;;;;;;7368256;19;20011;-60
2022/03/12 00:53:44;;;;;;;14.55;7.78;;;4.80;1.00;;;;;;7362041;19;20018;-60
2022/03/12 00:56:14;;;;;;;13.77;8.10;;;4.80;1.00;;;;;;7367933;19;20014;-60
2022/03/12 00:58:47;;;;;;;14.60;7.82;;;4.80;1.00;;;;;;7391374;19;20021;-61
2022/03/12 01:01:17;;;;;;;15.13;8.18;;;4.70;1.00;;;;;;7367782;19;20014;-60
2022/03/12 01:03:47;;;;;;;13.48;7.65;;;4.70;1.00;;;;;;7362874;19;20015;-60
2022/03/12 01:06:18;;;;;;;17.20;8.77;;;4.70;1.00;;;;;;7366189;19;20006;-61
2022/03/12 01:08:49;;;;;;;14.57;8.43;;;4.70;1.00;;;;;;7367927;19;20010;-61
2022/03/12 01:11:19;;;;;;;12.10;7.85;;;4.70;1.00;;;;;;7366589;19;20010;-60
2022/03/12 01:13:51;;;;;;;13.77;7.82;;;4.70;1.00;;;;;;7362731;19;20085;-61
2022/03/12 01:16:21;;;;;;;13.93;8.52;;;4.70;1.00;;;;;;7390038;19;20022;-60
2022/03/12 01:18:51;;;;;;;14.02;7.63;;;4.70;1.00;;;;;;7367310;19;20026;-60
2022/03/12 01:21:22;;;;;;;16.25;8.13;;;4.70;1.00;;;;;;7366014;19;20010;-60
2022/03/12 01:23:53;;;;;;;16.35;8.70;;;4.60;1.00;;;;;;7360428;19;20034;-61
2022/03/12 01:26:25;;;;;;;12.93;8.43;;;4.60;1.00;;;;;;7366514;19;20016;-60
2022/03/12 01:28:57;;;;;;;19.77;8.32;;;4.60;1.00;;;;;;7368948;19;20027;-61
2022/03/12 01:31:27;;;;;;;15.18;8.65;;;4.60;1.00;;;;;;7387777;19;20035;-61
2022/03/12 01:33:57;;;;;;;12.10;7.90;;;4.60;1.00;;;;;;7361168;19;20015;-61
2022/03/12 01:36:27;;;;;;;13.02;7.53;;;4.60;1.00;;;;;;7367236;19;20014;-60
2022/03/12 01:38:59;;;;;;;12.73;7.43;;;4.50;1.00;;;;;;7365695;19;20054;-60
2022/03/12 01:41:32;;;;;;;14.52;7.68;;;4.50;1.00;;;;;;7366865;19;20011;-61
2022/03/12 01:44:06;;;;;;;12.90;7.68;;;4.50;1.00;;;;;;7360787;19;20006;-59
2022/03/12 01:46:39;;;;;;;12.25;7.13;;;4.50;1.00;;;;;;7387213;19;20410;-60
2022/03/12 01:49:12;;;;;;;14.40;7.70;;;4.50;1.00;;;;;;7367961;19;20007;-60
2022/03/12 01:51:44;;;;;;;13.35;7.38;;;4.50;1.00;;;;;;7365872;19;20477;-60
2022/03/12 01:54:15;;;;;;;15.77;7.43;;;4.40;1.00;;;;;;7362348;19;20011;-60
2022/03/12 01:56:45;;;;;;;12.65;8.02;;;4.40;1.00;;;;;;7366744;19;20014;-60
2022/03/12 01:59:18;;;;;;;11.52;7.28;;;4.40;1.00;;;;;;7366751;19;20074;-60
2022/03/12 02:01:51;;;;;;;11.93;7.95;;;4.40;1.00;;;;;;7365250;19;20720;-60
2022/03/12 02:04:23;;;;;;;12.98;7.65;;;4.40;1.00;;;;;;7384378;19;20014;-60
2022/03/12 02:06:53;;;;;;;16.27;7.47;;;4.40;1.00;;;;;;7364688;19;20356;-60
2022/03/12 02:09:24;;;;;;;18.15;7.88;;;4.40;1.00;;;;;;7365800;19;20006;-60
2022/03/12 02:11:57;;;;;;;10.95;7.30;;;4.40;1.00;;;;;;7363515;19;20015;-60
2022/03/12 02:14:30;;;;;;;14.18;8.10;;;4.40;1.00;;;;;;7362659;19;20066;-61
2022/03/12 02:17:04;;;;;;;13.43;7.45;;;4.40;1.00;;;;;;7366281;19;20017;-61
2022/03/12 02:19:35;;;;;;;16.52;8.52;;;4.30;1.00;;;;;;7386662;19;20017;-60
2022/03/12 02:22:07;;;;;;;15.23;7.32;;;4.30;1.00;;;;;;7362576;19;20082;-60
2022/03/12 02:24:40;;;;;;;15.00;8.20;;;4.30;1.00;;;;;;7361876;19;20077;-60
2022/03/12 02:27:12;;;;;;;12.90;7.47;;;4.30;1.00;;;;;;7365278;19;20014;-61
2022/03/12 02:29:43;;;;;;;11.25;7.55;;;4.30;1.00;;;;;;7366296;19;20398;-61
2022/03/12 02:32:15;;;;;;;12.95;7.35;;;4.30;1.00;;;;;;7363362;19;20011;-61
2022/03/12 02:34:47;;;;;;;16.75;8.18;;;4.30;1.00;;;;;;7383221;19;20022;-63
2022/03/12 02:37:28;;;;;;;12.18;7.28;;;4.30;1.00;;;;;;7386636;19;20015;-59
2022/03/12 02:40:02;;;;;;;15.27;8.13;;;4.30;1.00;;;;;;7364030;19;20695;-60
2022/03/12 02:42:36;;;;;;;16.77;8.23;;;4.30;1.00;;;;;;7359285;19;20054;-59
2022/03/12 02:45:09;;;;;;;12.68;7.82;;;4.30;1.00;;;;;;7363037;19;19999;-60
2022/03/12 02:47:43;;;;;;;11.77;7.50;;;4.30;1.00;;;;;;7364269;19;20101;-60
2022/03/12 02:50:14;;;;;;;15.38;7.65;;;4.30;1.00;;;;;;7364776;19;20086;-60
2022/03/12 02:52:46;;;;;;;10.57;7.20;;;4.30;1.00;;;;;;7381368;19;20760;-60
2022/03/12 02:55:21;;;;;;;13.48;7.72;;;4.30;1.00;;;;;;7363166;19;20463;-60
2022/03/12 02:57:52;;;;;;;15.52;8.32;;;4.20;1.00;;;;;;7364289;19;20011;-61
2022/03/12 03:00:23;;;;;;;15.95;7.95;;;4.20;1.00;;;;;;7363735;19;20066;-60
2022/03/12 03:02:56;;;;;;;13.15;7.95;;;4.20;1.00;;;;;;7357853;19;20849;-60
2022/03/12 03:05:38;;;;;;;17.23;8.13;;;4.10;1.00;;;;;;7363031;19;20478;-59
2022/03/12 03:08:09;;;;;;;16.25;8.05;;;4.20;1.00;;;;;;7363676;19;20216;-59
2022/03/12 03:10:43;;;;;;;14.25;7.85;;;4.20;1.00;;;;;;7384311;19;20454;-60
2022/03/12 03:13:38;;;;;;;14.73;7.40;;;4.10;1.00;;;;;;7358967;19;20010;-60
2022/03/12 03:16:15;;;;;;;11.45;8.00;;;4.10;1.00;;;;;;7364169;19;20009;-60
2022/03/12 03:18:50;;;;;;;14.80;8.13;;;4.10;1.00;;;;;;7363911;19;20015;-60
2022/03/12 03:21:23;;;;;;;12.93;8.68;;;4.10;1.00;;;;;;7363160;19;20386;-60
2022/03/12 03:23:54;;;;;;;11.85;7.70;;;4.20;1.00;;;;;;7357157;19;20011;-60
2022/03/12 03:26:51;;;;;;;11.88;7.60;;;4.10;1.00;;;;;;7364027;19;20014;-59
2022/03/12 03:29:22;;;;;;;13.38;8.27;;;4.10;1.00;;;;;;7366722;19;20020;-60
2022/03/12 03:31:53;;;;;;;15.73;8.32;;;4.10;1.00;;;;;;7369284;19;20011;-61
2022/03/12 03:34:27;;;;;;;12.35;7.57;;;4.10;1.00;;;;;;7388588;19;20091;-60
2022/03/12 03:36:57;;;;;;;12.10;7.72;;;4.10;1.00;;;;;;7370381;19;20014;-60
2022/03/12 03:39:27;;;;;;;14.75;8.15;;;4.10;1.00;;;;;;7367242;19;20093;-60
2022/03/12 03:41:59;;;;;;;14.23;8.48;;;4.10;1.00;;;;;;7369473;19;20017;-61
2022/03/12 03:44:31;;;;;;;12.93;7.82;;;4.10;1.00;;;;;;7367453;19;20015;-60
2022/03/12 03:47:02;;;;;;;10.30;7.05;;;4.10;1.00;;;;;;7369215;19;20051;-60
2022/03/12 03:49:31;;;;;;;12.40;7.07;;;4.10;1.00;;;;;;7393483;19;20027;-60
2022/03/12 03:52:02;;;;;;;12.75;7.60;;;4.00;1.00;;;;;;7367530;19;20015;-61
2022/03/12 03:54:32;;;;;;;14.10;7.88;;;4.00;1.00;;;;;;7366906;19;20014;-60
2022/03/12 03:57:05;;;;;;;14.70;8.10;;;4.10;1.00;;;;;;7370322;19;20007;-60
2022/03/12 03:59:35;;;;;;;13.57;7.65;;;4.10;1.00;;;;;;7369349;19;20053;-59
2022/03/12 04:02:05;;;;;;;13.30;7.80;;;4.00;1.00;;;;;;7368789;19;20631;-59
2022/03/12 04:04:38;;;;;;;14.52;8.77;;;4.00;1.00;;;;;;7388177;19;20040;-59
2022/03/12 04:07:10;;;;;;;13.15;7.80;;;4.00;1.00;;;;;;7367293;19;20021;-60
2022/03/12 04:09:40;;;;;;;13.75;7.70;;;4.00;1.00;;;;;;7370519;19;20027;-60
2022/03/12 04:12:13;;;;;;;13.07;7.70;;;4.00;1.00;;;;;;7366638;19;20086;-60
2022/03/12 04:14:43;;;;;;;14.38;8.27;;;3.90;1.00;;;;;;7368081;19;20073;-60
2022/03/12 04:17:16;;;;;;;12.55;7.70;;;3.90;1.00;;;;;;7370810;19;20032;-60
2022/03/12 04:19:47;;;;;;;12.55;8.02;;;3.90;1.00;;;;;;7391492;19;20375;-60
2022/03/12 04:22:20;;;;;;;12.63;7.65;;;3.90;1.00;;;;;;7364777;19;20009;-60
2022/03/12 04:24:49;;;;;;;9.82;7.28;;;3.90;1.00;;;;;;7368327;19;20010;-59
2022/03/12 04:27:22;;;;;;;12.63;7.47;;;3.90;1.00;;;;;;7367881;19;20006;-60
2022/03/12 04:29:52;;;;;;;12.55;8.13;;;3.80;1.00;;;;;;7370018;19;20028;-60
2022/03/12 04:32:23;;;;;;;13.30;7.47;;;3.80;1.00;;;;;;7364487;19;20560;-60
2022/03/12 04:34:53;;;;;;;13.30;7.75;;;3.90;1.00;;;;;;7388994;19;20352;-60
2022/03/12 04:37:22;;;;;;;16.00;9.02;;;3.70;1.00;;;;;;7369703;19;20535;-60
2022/03/12 04:39:53;;;;;;;15.45;8.00;;;3.80;1.00;;;;;;7368962;19;20013;-60
2022/03/12 04:42:30;;;;;;;13.38;8.30;;;3.70;1.00;;;;;;7359806;19;20418;-60
2022/03/12 04:45:00;;;;;;;14.40;8.30;;;3.70;1.00;;;;;;7367978;19;20018;-60
2022/03/12 04:47:29;;;;;;;15.20;8.00;;;3.60;1.00;;;;;;7368517;19;20010;-59
2022/03/12 04:49:59;;;;;;;12.43;8.02;;;3.50;1.00;;;;;;7369503;19;20532;-59
2022/03/12 04:52:29;;;;;;;14.57;8.05;;;3.50;1.00;;;;;;7384526;19;20490;-59
2022/03/12 04:55:00;;;;;;;15.70;7.45;;;3.40;1.00;;;;;;7366701;19;20473;-59
2022/03/12 04:57:32;;;;;;;12.02;7.85;;;3.40;1.00;;;;;;7368206;19;20014;-60
2022/03/12 05:00:04;;;;;;;21.52;8.02;;;3.40;1.00;;;;;;7367776;19;20011;-59
2022/03/12 05:02:35;;;;;;;15.93;7.82;;;3.40;1.00;;;;;;7361733;19;20043;-60
2022/03/12 05:05:05;;;;;;;15.20;7.90;;;3.40;1.00;;;;;;7366218;19;20421;-60
2022/03/12 05:07:35;;;;;;;17.45;8.40;;;3.50;1.00;;;;;;7389639;19;20018;-60
2022/03/12 05:10:08;;;;;;;14.63;8.63;;;3.50;1.00;;;;;;7367975;19;20016;-59
2022/03/12 05:12:43;;;;;;;15.55;8.55;;;3.50;1.00;;;;;;7360304;19;20793;-60
2022/03/12 05:15:13;;;;;;;13.93;7.28;;;3.50;1.00;;;;;;7367142;19;20549;-59
2022/03/12 05:17:46;;;;;;;13.55;8.15;;;3.50;1.00;;;;;;7368773;19;20007;-59
2022/03/12 05:20:22;;;;;;;15.65;8.85;;;3.60;1.00;;;;;;7368703;19;20542;-60
2022/03/12 05:22:53;;;;;;;17.05;7.65;;;3.60;1.00;;;;;;7384501;19;20023;-60
2022/03/12 05:25:25;;;;;;;12.80;7.57;;;3.60;1.00;;;;;;7365202;19;20002;-60
2022/03/12 05:27:58;;;;;;;13.52;8.23;;;3.60;1.00;;;;;;7365896;19;20030;-60
2022/03/12 05:30:29;;;;;;;12.35;7.50;;;3.70;1.00;;;;;;7367936;19;20070;-60
2022/03/12 05:32:59;;;;;;;11.65;7.47;;;3.60;1.00;;;;;;7360353;19;20121;-59
2022/03/12 05:35:29;;;;;;;11.98;7.40;;;3.60;1.00;;;;;;7365866;19;20055;-60
2022/03/12 05:37:59;;;;;;;15.38;8.27;;;3.60;1.00;;;;;;7367723;19;20017;-60
2022/03/12 05:40:30;;;;;;;13.15;8.07;;;3.60;1.00;;;;;;7389218;19;20027;-59
2022/03/12 05:43:02;;;;;;;13.25;8.15;;;3.60;1.00;;;;;;7359436;19;20010;-59
2022/03/12 05:45:32;;;;;;;12.50;7.63;;;3.70;1.00;;;;;;7366618;19;20011;-59
2022/03/12 05:48:02;;;;;;;13.63;7.80;;;3.70;1.00;;;;;;7366616;19;20011;-59
2022/03/12 05:50:32;;;;;;;12.88;8.30;;;3.70;1.00;;;;;;7367551;19;20082;-59
2022/03/12 05:53:02;;;;;;;13.70;7.65;;;3.70;1.00;;;;;;7358444;19;20442;-60
2022/03/12 05:55:33;;;;;;;14.10;8.00;;;3.70;1.00;;;;;;7387559;19;20015;-60
2022/03/12 05:58:05;;;;;;;13.02;8.15;;;3.60;1.00;;;;;;7365683;19;20466;-59
2022/03/12 06:00:35;;;;;;;14.57;7.50;;;3.60;1.00;;;;;;7366766;19;20082;-59
2022/03/12 06:03:10;;;;;;;15.25;8.50;;;3.70;1.00;;;;;;7356772;19;20530;-60
2022/03/12 06:05:42;;;;;;;15.02;8.07;;;3.70;1.00;;;;;;7364359;19;20770;-60
2022/03/12 06:08:22;;;;;;;11.85;7.50;;;3.70;1.00;;;;;;7365863;19;20021;-59
2022/03/12 06:10:54;;;;;;;11.77;7.82;;;3.70;1.00;;;;;;7387790;19;20007;-59
2022/03/12 06:13:29;;;;;;;13.38;8.25;;;3.70;1.00;;;;;;7356580;19;20018;-60
2022/03/12 06:16:02;;;;;;;13.73;7.80;;;3.70;1.00;;;;;;7366744;19;20015;-60
2022/03/12 06:18:35;;;;;;;13.07;8.02;;;3.70;1.00;;;;;;7366672;19;20014;-60
2022/03/12 06:21:07;;;;;;;16.48;8.30;;;3.70;1.00;;;;;;7364090;19;20049;-60
2022/03/12 06:23:37;;;;;;;13.02;7.97;;;3.70;1.00;;;;;;7355716;19;20054;-60
2022/03/12 06:26:14;;;;;;;15.27;8.45;;;3.70;1.00;;;;;;7365323;19;20516;-60
2022/03/12 06:28:47;;;;;;;13.65;7.97;;;3.80;1.00;;;;;;7387038;19;20010;-59
2022/03/12 06:31:18;;;;;;;14.18;8.88;;;3.80;1.00;;;;;;7365926;19;20014;-59
2022/03/12 06:34:09;;;;;;;12.07;7.72;;;3.90;1.00;;;;;;7355693;19;20018;-61
2022/03/12 06:36:49;;;;;;;13.85;8.15;;;4.00;1.00;;;;;;7363226;19;20035;-62
2022/03/12 06:39:21;;;;;;;14.95;7.88;;;4.00;1.00;;;;;;7363876;19;20124;-61
2022/03/12 06:41:56;;;;;;;14.80;8.18;;;4.00;1.00;;;;;;7364755;19;20011;-59
2022/03/12 06:44:32;;;;;;;12.15;8.05;;;4.20;1.00;;;;;;7355929;19;20014;-59
2022/03/12 06:47:03;;;;;;;12.30;8.25;;;4.20;1.00;;;;;;7365800;19;20517;-60
2022/03/12 06:49:33;;;;;;;11.68;8.27;;;4.30;1.00;;;;;;7385165;19;20093;-60
2022/03/12 06:52:03;;;;;;;15.50;8.75;;;4.50;1.00;;;;;;7364059;19;20010;-60
2022/03/12 06:54:33;;;;;;;14.55;7.90;;;4.60;1.00;;;;;;7356360;19;20194;-60
2022/03/12 06:57:04;;;;;;;14.77;8.23;;;4.70;1.00;;;;;;7364955;19;20022;-58
2022/03/12 06:59:36;;;;;;;14.57;8.25;;;4.60;1.00;;;;;;7365677;19;20097;-59
2022/03/12 07:02:07;;;;;;;12.80;7.47;;;4.50;1.00;;;;;;7364062;19;20007;-59
2022/03/12 07:04:37;;;;;;;12.98;8.05;;;4.50;1.00;;;;;;7381178;19;20018;-59
2022/03/12 07:07:08;;;;;;;16.27;8.63;;;4.70;1.00;;;;;;7372042;19;20015;-60
2022/03/12 07:09:38;;;;;;;12.15;7.15;;;4.80;1.00;;;;;;7371235;19;20010;-60
2022/03/12 07:12:08;;;;;;;13.45;8.02;;;4.70;1.00;;;;;;7370980;19;20015;-60
2022/03/12 07:14:41;;;;;;;13.63;8.00;;;4.70;1.00;;;;;;7365014;19;20015;-59
2022/03/12 07:17:11;;;;;;;13.57;7.97;;;4.70;1.00;;;;;;7372895;19;20015;-59
2022/03/12 07:19:41;;;;;;;12.70;8.30;;;4.60;1.00;;;;;;7393980;19;20014;-60
2022/03/12 07:22:11;;;;;;;13.00;8.80;;;4.60;1.00;;;;;;7368443;19;20017;-59
2022/03/12 07:24:41;;;;;;;15.18;8.85;;;4.60;1.00;;;;;;7364937;19;20517;-59
2022/03/12 07:27:12;;;;;;;13.73;8.38;;;4.80;1.00;;;;;;7371347;19;20024;-59
2022/03/12 07:29:44;;;;;;;15.88;8.57;;;4.90;1.00;;;;;;7371039;19;20073;-59
2022/03/12 07:32:15;;;;;;;12.52;7.95;;;4.90;1.00;;;;;;7369080;19;20011;-60
2022/03/12 07:34:45;;;;;;;13.90;7.85;;;5.00;1.00;;;;;;7387471;19;20049;-59
2022/03/12 07:37:15;;;;;;;13.85;7.82;;;4.90;1.00;;;;;;7370049;19;20032;-59
2022/03/12 07:39:45;;;;;;;13.75;8.43;;;4.80;1.00;;;;;;7371339;19;20015;-60
2022/03/12 07:42:15;;;;;;;12.80;8.43;;;5.10;1.00;;;;;;7367819;19;20315;-59
2022/03/12 07:44:48;;;;;;;16.45;8.23;;;5.20;1.00;;;;;;7365649;19;20082;-59
2022/03/12 07:47:18;;;;;;;14.18;8.75;;;5.40;1.00;;;;;;7370515;19;20021;-59
2022/03/12 07:49:48;;;;;;;17.65;8.98;;;5.40;1.00;;;;;;7390102;19;20478;-59
2022/03/12 07:52:18;;;;;;;16.02;9.02;;;5.50;1.00;;;;;;7363988;19;20020;-59
2022/03/12 07:54:48;;;;;;;16.17;8.40;;;5.30;1.00;;;;;;7364064;19;20123;-60
2022/03/12 07:57:19;;;;;;;15.05;8.65;;;5.30;1.00;;;;;;7370032;19;20046;-59
2022/03/12 07:59:51;;;;;;;16.05;8.52;;;5.50;1.00;;;;;;7369687;19;20006;-60
2022/03/12 08:02:21;;;;;;;14.95;9.30;;;5.60;1.00;;;;;;7366101;19;20010;-60
2022/03/12 08:04:51;;;;;;;17.13;8.85;;;5.60;1.00;;;;;;7386057;19;20034;-59
2022/03/12 08:07:21;;;;;;;17.80;8.75;;;5.60;1.00;;;;;;7369833;19;20363;-59
2022/03/12 08:09:55;;;;;;;15.10;9.25;;;5.70;1.00;;;;;;7367770;19;20017;-59
2022/03/12 08:12:31;;;;;;;16.65;9.23;;;5.80;1.00;;;;;;7365136;19;20014;-59
2022/03/12 08:15:08;;;;;;;15.77;8.57;;;5.70;1.00;;;;;;7367003;19;20010;-60
2022/03/12 08:17:39;;;;;;;15.85;8.45;;;5.80;1.00;;;;;;7366612;19;20021;-58
2022/03/12 08:20:10;;;;;;;17.58;8.55;;;6.00;1.00;;;;;;7370324;19;20081;-59
2022/03/12 08:22:42;;;;;;;15.18;9.10;;;6.20;1.00;;;;;;7381939;19;20021;-60
2022/03/12 08:25:14;;;;;;;18.13;9.57;;;6.40;1.00;;;;;;7365940;19;20027;-60
2022/03/12 08:27:45;;;;;;;14.63;9.00;;;6.40;1.00;;;;;;7369546;19;20007;-59
2022/03/12 08:30:19;;;;;;;16.08;8.73;;;6.40;1.00;;;;;;7367805;19;20014;-60
2022/03/12 08:32:49;;;;;;;15.27;8.98;;;6.30;1.00;;;;;;7361163;19;20014;-61
2022/03/12 08:35:19;;;;;;;15.02;8.93;;;6.70;1.00;;;;;;7365097;19;20063;-59
2022/03/12 08:37:49;;;;;;;15.50;9.07;;;6.70;1.00;;;;;;7390333;19;20011;-60
2022/03/12 08:40:19;;;;;;;16.50;9.90;;;6.80;1.00;;;;;;7367299;19;20011;-60
2022/03/12 08:42:49;;;;;;;16.10;8.98;;;7.00;1.00;;;;;;7359883;19;20018;-60
2022/03/12 08:45:22;;;;;;;21.65;9.43;;;7.20;1.00;;;;;;7364860;19;20026;-60
2022/03/12 08:47:53;;;;;;;13.68;9.05;;;7.30;1.00;;;;;;7367332;19;20013;-60
2022/03/12 08:50:24;;;;;;;18.70;9.85;;;7.30;1.00;;;;;;7365499;19;20077;-60
2022/03/12 08:52:54;;;;;;;20.27;10.00;;;7.30;1.00;;;;;;7381039;19;20025;-60
2022/03/12 08:55:25;;;;;;;17.13;10.15;;;7.40;1.00;;;;;;7364810;19;20027;-60
2022/03/12 08:57:56;;;;;;;23.73;9.90;;;7.40;1.00;;;;;;7368258;19;20010;-60
2022/03/12 09:00:28;;;;;;;17.45;10.18;;;7.40;1.00;;;;;;7367479;19;20134;-60
2022/03/12 09:02:58;;;;;;;17.42;10.23;;;7.50;1.00;;;;;;7359207;19;20007;-60
2022/03/12 09:05:28;;;;;;;16.58;10.15;;;7.50;1.00;;;;;;7365415;19;20014;-60
2022/03/12 09:07:58;;;;;;;19.50;10.25;;;7.90;1.00;;;;;;7368048;19;20434;-61
2022/03/12 09:10:28;;;;;;;18.50;10.25;;;8.00;1.00;;;;;;7387100;19;20014;-61
2022/03/12 09:12:58;;;;;;;20.23;10.30;;;8.10;1.00;;;;;;7359581;19;20006;-60
2022/03/12 09:15:31;;;;;;;16.67;9.95;;;8.20;1.00;;;;;;7366371;19;20086;-60
2022/03/12 09:18:01;;;;;;;18.05;10.05;;;8.40;1.00;;;;;;7367747;19;20010;-60
2022/03/12 09:20:33;;;;;;;18.45;11.18;;;8.30;1.00;;;;;;7367057;19;20014;-60
2022/03/12 09:23:02;;;;;;;17.00;10.63;;;8.40;1.00;;;;;;7360239;19;20028;-60
2022/03/12 09:25:32;;;;;;;21.95;10.52;;;8.50;1.00;;;;;;7385868;19;20033;-60
2022/03/12 09:28:02;;;;;;;23.88;11.00;;;8.70;1.00;;;;;;7366184;19;20021;-61
2022/03/12 09:30:35;;;;;;;19.05;11.07;;;9.00;1.00;;;;;;7364380;19;20093;-61
2022/03/12 09:33:05;;;;;;;18.98;11.23;;;8.70;1.00;;;;;;7358193;19;20478;-61
2022/03/12 09:35:36;;;;;;;18.30;10.57;;;9.10;1.00;;;;;;7360986;19;20021;-60
2022/03/12 09:38:06;;;;;;;19.35;11.48;;;9.00;1.00;;;;;;7363994;19;20474;-61
2022/03/12 09:40:36;;;;;;;20.60;11.68;;;9.20;1.00;;;;;;7387800;19;20413;-60
2022/03/12 09:43:11;;;;;;;20.20;11.85;;;9.20;1.00;;;;;;7357604;19;20014;-60
2022/03/12 09:45:43;;;;;;;19.17;11.18;;;9.20;1.00;;;;;;7365634;19;20140;-59
2022/03/12 09:48:13;;;;;;;20.40;11.88;;;9.30;1.00;;;;;;7365822;19;20392;-61
2022/03/12 09:50:43;;;;;;;24.17;12.15;;;9.50;1.00;;;;;;7364725;19;20078;-61
2022/03/12 09:53:13;;;;;;;19.48;12.07;;;9.60;1.00;;;;;;7358263;19;20033;-60
2022/03/12 09:55:43;;;;;;;18.42;11.38;;;9.40;1.00;;;;;;7386208;19;20039;-60
2022/03/12 09:58:13;;;;;;;18.30;11.77;;;9.40;1.00;;;;;;7365289;19;20020;-60
2022/03/12 10:00:46;;;;;;;19.92;11.45;;;9.70;1.00;;;;;;7364084;19;20530;-60
2022/03/12 10:03:16;;;;;;;24.98;12.48;;;9.80;1.00;;;;;;7355661;19;20010;-60
2022/03/12 10:05:46;;;;;;;21.88;12.85;;;10.00;1.00;;;;;;7364927;19;20024;-59
2022/03/12 10:08:16;;;;;;;20.33;12.10;;;10.10;1.00;;;;;;7366806;19;20102;-60
2022/03/12 10:10:47;;;;;;;18.83;12.63;;;10.20;1.00;;;;;;7387255;19;20014;-60
2022/03/12 10:13:17;;;;;;;19.73;12.32;;;10.30;1.00;;;;;;7356545;19;20101;-60
2022/03/12 10:15:50;;;;;;;21.40;11.77;;;10.30;1.00;;;;;;7364821;19;20090;-61
2022/03/12 10:18:22;;;;;;;21.17;12.57;;;10.30;1.00;;;;;;7365932;19;20010;-60
2022/03/12 10:20:53;;;;;;;21.15;11.93;;;10.60;1.00;;;;;;7365532;19;20094;-60
2022/03/12 10:23:23;;;;;;;20.17;12.63;;;10.70;1.00;;;;;;7356617;19;20021;-60
2022/03/12 10:25:53;;;;;;;17.92;11.93;;;10.90;1.00;;;;;;7387485;19;20189;-60
2022/03/12 10:28:23;;;;;;;19.55;12.50;;;10.90;1.00;;;;;;7363842;19;20024;-60
2022/03/12 10:30:56;;;;;;;23.17;12.25;;;10.70;1.00;;;;;;7363756;19;20006;-60
2022/03/12 10:33:27;;;;;;;22.10;11.73;;;10.70;1.00;;;;;;7356939;19;20017;-60
2022/03/12 10:35:57;;;;;;;21.25;12.60;;;11.00;1.00;;;;;;7364041;19;20054;-60
2022/03/12 10:38:27;;;;;;;28.55;13.25;;;10.90;1.00;;;;;;7364295;19;20474;-61
2022/03/12 10:40:59;;;;;;;18.45;12.88;;;11.30;1.00;;;;;;7371309;19;20014;-61
2022/03/12 10:43:36;;;;;;;21.58;12.68;;;11.30;1.00;;;;;;7376750;19;20118;-60
2022/03/12 10:46:09;;;;;;;20.00;12.40;;;11.50;1.00;;;;;;7364145;19;20010;-61
2022/03/12 10:48:41;;;;;;;18.27;12.35;;;11.70;1.00;;;;;;7364749;19;20022;-60
2022/03/12 10:51:11;;;;;;;22.73;12.98;;;11.90;1.00;;;;;;7365847;19;20073;-60
2022/03/12 10:53:42;;;;;;;19.88;12.85;;;11.90;1.00;;;;;;7354715;19;20043;-60
2022/03/12 10:56:12;;;;;;;15.95;11.70;;;11.40;1.00;;;;;;7363920;19;20481;-62
2022/03/12 10:58:42;;;;;;;18.80;12.32;;;11.60;1.00;;;;;;7386083;19;20410;-61
2022/03/12 11:01:25;;;;;;;21.42;12.73;;;11.50;1.00;;;;;;7363309;19;20016;-61
2022/03/12 11:03:56;;;;;;;19.38;11.68;;;11.50;1.00;;;;;;7353212;19;20085;-62
2022/03/12 11:06:26;;;;;;;17.95;10.60;;;11.90;1.00;;;;;;7364584;19;20022;-61
2022/03/12 11:08:56;;;;;;;17.50;11.32;;;11.70;1.00;;;;;;7363329;19;20085;-60
2022/03/12 11:11:26;;;;;;;19.38;11.75;;;11.80;1.00;;;;;;7362788;19;20019;-60
2022/03/12 11:14:02;;;;;;;18.30;12.82;;;11.50;1.00;;;;;;7370644;19;20024;-62
2022/03/12 11:16:35;;;;;;;17.60;11.30;;;11.70;1.00;;;;;;7386184;19;20014;-60
2022/03/12 11:19:12;;;;;;;16.33;10.60;;;11.80;1.00;;;;;;7364052;19;20028;-61
2022/03/12 11:21:50;;;;;;;20.52;11.90;;;11.80;1.00;;;;;;7363792;19;20549;-61
2022/03/12 11:24:23;;;;;;;18.15;12.02;;;12.00;1.00;;;;;;7352164;19;20411;-60
2022/03/12 11:26:54;;;;;;;19.55;12.50;;;12.00;1.00;;;;;;7363375;19;20015;-60
2022/03/12 11:29:26;;;;;;;17.30;12.05;;;12.10;1.00;;;;;;7363197;19;20400;-60
2022/03/12 11:32:00;;;;;;;22.33;13.02;;;12.20;1.00;;;;;;7377613;19;20029;-62
2022/03/12 11:34:34;;;;;;;;;;;12.30;1.00;;;;;;7375666;19;20202;-61
2022/03/12 11:37:08;;;;;;;18.02;10.80;;;12.40;1.00;;;;;;7360343;19;20493;-60
2022/03/12 11:39:42;;;;;;;16.77;11.48;;;12.40;1.00;;;;;;7360934;19;20010;-60
2022/03/12 11:42:14;;;;;;;18.50;11.40;;;12.60;1.00;;;;;;7359522;19;20017;-61
2022/03/12 11:44:46;;;;;;;22.55;10.57;;;12.70;1.00;;;;;;7356110;19;20041;-61
2022/03/12 11:47:21;;;;;;;15.77;10.23;;;12.60;1.00;;;;;;7362839;19;20111;-60
2022/03/12 11:49:52;;;;;;;15.00;10.27;;;12.70;1.00;;;;;;7384270;19;20010;-60
2022/03/12 11:52:22;;;;;;;15.07;10.70;;;12.70;1.00;;;;;;7363190;19;20102;-59
2022/03/12 11:54:56;;;;;;;16.42;10.45;;;12.80;1.00;;;;;;7362145;19;20651;-61
2022/03/12 11:57:28;;;;;;;15.88;10.48;;;12.90;1.00;;;;;;7369574;19;20466;-61
2022/03/12 11:59:59;;;;;;;17.42;10.00;;;12.70;1.00;;;;;;7369480;19;20468;-60
2022/03/12 12:02:34;;;;;;;15.45;10.50;;;13.00;1.00;;;;;;7366927;19;20034;-61
2022/03/12 12:05:11;;;;;;;16.33;10.10;;;13.00;1.00;;;;;;7361755;19;20378;-61
2022/03/12 12:07:44;;;;;;;13.02;8.98;;;13.00;1.00;;;;;;7390664;19;20014;-61
2022/03/12 12:10:16;;;;;;;14.35;9.88;;;12.90;1.00;;;;;;7368699;19;20074;-61
2022/03/12 12:12:51;;;;;;;13.80;9.52;;;13.10;1.00;;;;;;7361709;19;20541;-61
2022/03/12 12:15:26;;;;;;;14.75;9.70;;;13.10;1.00;;;;;;7367308;19;20035;-61
2022/03/12 12:17:59;;;;;;;12.57;8.63;;;13.50;1.00;;;;;;7368794;19;20014;-60
2022/03/12 12:20:29;;;;;;;10.93;7.85;;;13.40;1.00;;;;;;7369170;19;20010;-61
2022/03/12 12:23:00;;;;;;;14.77;7.13;;;13.30;1.00;;;;;;7358858;19;20016;-60
2022/03/12 12:25:34;;;;;;;13.48;8.43;;;13.20;1.00;;;;;;7387929;19;20089;-61
2022/03/12 12:28:16;;;;;;;10.93;8.25;;;13.30;1.00;;;;;;7367380;19;20014;-60
2022/03/12 12:30:47;;;;;;;14.82;8.50;;;13.40;1.00;;;;;;7368663;19;20384;-62
2022/03/12 12:33:26;;;;;;;12.85;8.70;;;13.40;1.00;;;;;;7359307;19;20010;-60
2022/03/12 12:36:13;;;;;;;17.60;9.25;;;13.40;1.00;;;;;;7367324;19;20040;-61
2022/03/12 12:39:03;;;;;;;15.23;9.48;;;13.60;1.00;;;;;;7367616;19;20010;-61
2022/03/12 12:41:54;;;;;;;14.48;9.75;;;13.70;1.00;;;;;;7369188;19;20566;-61
2022/03/12 12:44:44;;;;;;;16.60;10.90;;;13.70;1.00;;;;;;7357991;19;20113;-59
2022/03/12 12:47:20;;;;;;;18.42;11.23;;;13.40;1.00;;;;;;7368421;19;20030;-60
2022/03/12 12:49:58;;;;;;;13.10;9.82;;;13.20;1.00;;;;;;7390946;19;20014;-60
2022/03/12 12:52:34;;;;;;;15.68;9.95;;;13.40;1.00;;;;;;7364180;19;20006;-61
2022/03/12 12:55:07;;;;;;;16.80;9.75;;;13.50;1.00;;;;;;7359880;19;20327;-61
2022/03/12 12:57:43;;;;;;;13.27;9.68;;;13.60;1.00;;;;;;7367170;19;20014;-61
2022/03/12 13:00:36;;;;;;;14.85;9.70;;;13.80;1.00;;;;;;7367759;19;20031;-62
2022/03/12 13:03:19;;;;;;;16.73;9.85;;;13.90;1.00;;;;;;7356332;19;20332;-60
2022/03/12 13:05:57;;;;;;;13.02;9.40;;;13.70;1.00;;;;;;7365875;19;20025;-61
2022/03/12 13:08:44;;;;;;;14.23;9.20;;;13.80;1.00;;;;;;7366830;19;20081;-61
2022/03/12 13:11:30;;;;;;;19.40;9.75;;;13.80;1.00;;;;;;7368296;19;20362;-61
2022/03/12 13:14:03;;;;;;;14.15;8.38;;;13.90;1.00;;;;;;7356749;19;20530;-61
2022/03/12 13:16:51;;;;;;;14.00;9.27;;;13.90;1.00;;;;;;7388958;19;20018;-59
2022/03/12 13:19:46;;;;;;;13.68;8.82;;;14.10;1.00;;;;;;7365936;19;20046;-60